createdAt,value
2019-03-08T00:01:59.587Z,79.60
2019-03-08T00:03:59.598Z,79.96
2019-03-08T00:05:59.240Z,79.86
2019-03-08T00:07:59.527Z,80.30
2019-03-08T00:09:59.534Z,80.19
2019-03-08T00:11:59.559Z,80.51
2019-03-08T00:13:59.549Z,80.69
2019-03-08T00:15:59.681Z,80.58
2019-03-08T00:17:59.386Z,80.68
2019-03-08T00:19:59.900Z,80.72
2019-03-08T00:21:59.613Z,80.91
2019-03-08T00:23:59.284Z,80.90
2019-03-08T00:25:59.655Z,80.55
2019-03-08T00:27:59.746Z,80.58
2019-03-08T00:29:59.750Z,80.68
2019-03-08T00:31:59.271Z,80.76
2019-03-08T00:33:59.562Z,81.00
2019-03-08T00:35:59.692Z,80.91
2019-03-08T00:37:59.701Z,81.02
2019-03-08T00:39:59.917Z,81.10
2019-03-08T00:41:59.616Z,80.85
2019-03-08T00:43:59.624Z,81.28
2019-03-08T00:45:59.644Z,81.16
2019-03-08T00:47:59.857Z,81.17
2019-03-08T00:49:59.660Z,81.23
2019-03-08T00:51:59.678Z,81.50
2019-03-08T00:53:59.686Z,81.55
2019-03-08T00:55:59.507Z,81.54
2019-03-08T00:58:00.017Z,81.38
2019-03-08T00:59:59.420Z,81.44
2019-03-08T01:01:59.494Z,81.46
2019-03-08T01:03:59.747Z,81.47
2019-03-08T01:05:59.657Z,81.64
2019-03-08T01:07:59.563Z,81.24
2019-03-08T01:09:59.477Z,81.47
2019-03-08T01:11:59.417Z,81.33
2019-03-08T01:13:59.602Z,81.29
2019-03-08T01:15:59.712Z,81.42
2019-03-08T01:17:59.421Z,81.41
2019-03-08T01:19:59.635Z,81.47
2019-03-08T01:21:59.855Z,81.30
2019-03-08T01:23:59.665Z,81.66
2019-03-08T01:25:59.672Z,81.10
2019-03-08T01:27:59.471Z,81.80
2019-03-08T01:29:59.597Z,81.61
2019-03-08T01:31:59.404Z,81.39
2019-03-08T01:33:59.924Z,81.57
2019-03-08T01:35:59.729Z,81.59
2019-03-08T01:37:59.631Z,81.76
2019-03-08T01:39:59.748Z,81.27
2019-03-08T01:42:00.077Z,81.19
2019-03-08T01:43:59.881Z,80.87
2019-03-08T01:45:59.682Z,81.06
2019-03-08T01:47:59.901Z,80.88
2019-03-08T01:49:59.705Z,80.63
2019-03-08T01:51:59.731Z,80.94
2019-03-08T01:53:59.534Z,80.97
2019-03-08T01:55:59.954Z,80.13
2019-03-08T01:57:59.567Z,79.80
2019-03-08T01:59:59.457Z,79.11
2019-03-08T02:01:59.570Z,78.09
2019-03-08T02:03:59.575Z,77.48
2019-03-08T02:05:59.701Z,77.56
2019-03-08T02:07:59.611Z,76.35
2019-03-08T02:09:59.721Z,75.62
2019-03-08T02:11:59.558Z,75.95
2019-03-08T02:14:00.081Z,75.02
2019-03-08T02:15:59.857Z,73.95
2019-03-08T02:17:59.876Z,74.15
2019-03-08T02:19:59.783Z,73.78
2019-03-08T02:21:59.791Z,72.87
2019-03-08T02:23:59.802Z,73.41
2019-03-08T02:25:59.711Z,72.41
2019-03-08T02:27:59.827Z,72.85
2019-03-08T02:29:59.633Z,71.84
2019-03-08T02:31:59.742Z,72.09
2019-03-08T02:33:59.662Z,71.94
2019-03-08T02:35:59.666Z,71.65
2019-03-08T02:37:59.891Z,71.19
2019-03-08T02:39:59.799Z,70.04
2019-03-08T02:42:00.005Z,70.14
2019-03-08T02:43:59.560Z,69.28
2019-03-08T02:45:59.734Z,68.83
2019-03-08T02:47:59.740Z,69.22
2019-03-08T02:49:59.752Z,68.94
2019-03-08T02:51:59.559Z,68.83
2019-03-08T02:53:59.573Z,67.78
2019-03-08T02:55:59.593Z,67.51
2019-03-08T02:57:59.600Z,66.34
2019-03-08T02:59:59.479Z,66.92
2019-03-08T03:01:59.819Z,66.28
2019-03-08T03:04:00.242Z,66.99
2019-03-08T03:05:59.658Z,66.35
2019-03-08T03:07:59.755Z,66.40
2019-03-08T03:09:59.577Z,65.79
2019-03-08T03:11:59.804Z,66.15
2019-03-08T03:13:59.558Z,65.99
2019-03-08T03:15:59.600Z,65.92
2019-03-08T03:18:00.119Z,66.17
2019-03-08T03:19:59.701Z,66.09
2019-03-08T03:21:59.642Z,66.08
2019-03-08T03:23:59.951Z,66.17
2019-03-08T03:26:00.071Z,65.83
2019-03-08T03:27:59.768Z,65.67
2019-03-08T03:29:59.683Z,65.95
2019-03-08T03:31:59.818Z,66.15
2019-03-08T03:33:59.901Z,65.33
2019-03-08T03:35:59.851Z,65.73
2019-03-08T03:37:59.727Z,65.75
2019-03-08T03:39:59.876Z,65.50
2019-03-08T03:41:59.744Z,64.93
2019-03-08T03:43:59.655Z,64.88
2019-03-08T03:45:59.764Z,65.45
2019-03-08T03:47:59.670Z,65.76
2019-03-08T03:49:59.790Z,66.14
2019-03-08T03:51:59.606Z,65.88
2019-03-08T03:54:00.015Z,66.14
2019-03-08T03:55:59.557Z,66.54
2019-03-08T03:57:59.782Z,66.63
2019-03-08T04:00:00.055Z,66.90
2019-03-08T04:01:59.762Z,67.15
2019-03-08T04:03:59.976Z,66.89
2019-03-08T04:05:59.751Z,67.63
2019-03-08T04:07:59.996Z,67.58
2019-03-08T04:09:59.688Z,67.63
2019-03-08T04:11:59.816Z,68.15
2019-03-08T04:13:59.746Z,68.37
2019-03-08T04:15:59.835Z,68.59
2019-03-08T04:17:59.640Z,68.98
2019-03-08T04:19:59.765Z,68.96
2019-03-08T04:21:59.876Z,69.25
2019-03-08T04:23:59.994Z,69.60
2019-03-08T04:25:59.801Z,70.11
2019-03-08T04:27:59.917Z,69.71
2019-03-08T04:29:59.996Z,69.89
2019-03-08T04:31:59.934Z,70.45
2019-03-08T04:33:59.948Z,70.45
2019-03-08T04:35:59.991Z,70.17
2019-03-08T04:38:00.076Z,71.01
2019-03-08T04:39:59.880Z,70.90
2019-03-08T04:41:59.784Z,70.98
2019-03-08T04:43:59.902Z,71.41
2019-03-08T04:45:59.815Z,71.80
2019-03-08T04:47:59.751Z,71.57
2019-03-08T04:49:59.940Z,72.28
2019-03-08T04:52:00.147Z,72.01
2019-03-08T04:53:59.963Z,72.19
2019-03-08T04:55:59.765Z,72.32
2019-03-08T04:57:59.775Z,72.30
2019-03-08T04:59:59.786Z,72.27
2019-03-08T05:01:59.801Z,72.78
2019-03-08T05:03:59.925Z,73.18
2019-03-08T05:06:00.736Z,72.97
2019-03-08T05:07:59.844Z,73.00
2019-03-08T05:10:00.301Z,73.15
2019-03-08T05:11:59.865Z,73.15
2019-03-08T05:13:59.792Z,72.94
2019-03-08T05:15:59.609Z,73.60
2019-03-08T05:18:00.080Z,73.19
2019-03-08T05:19:59.820Z,73.33
2019-03-08T05:21:59.919Z,73.39
2019-03-08T05:23:59.931Z,72.93
2019-03-08T05:25:59.827Z,73.21
2019-03-08T05:27:59.822Z,73.24
2019-03-08T05:29:59.870Z,73.46
2019-03-08T05:31:59.857Z,73.55
2019-03-08T05:34:00.135Z,73.69
2019-03-08T05:35:59.852Z,73.26
2019-03-08T05:38:00.114Z,73.72
2019-03-08T05:39:59.927Z,73.39
2019-03-08T05:41:59.947Z,73.57
2019-03-08T05:44:00.250Z,73.50
2019-03-08T05:45:59.757Z,73.43
2019-03-08T05:47:59.866Z,73.57
2019-03-08T05:49:59.876Z,73.74
2019-03-08T05:51:59.681Z,73.71
2019-03-08T05:54:00.001Z,73.74
2019-03-08T05:55:59.812Z,73.80
2019-03-08T05:58:00.000Z,73.29
2019-03-08T05:59:59.881Z,73.07
2019-03-08T06:01:59.845Z,73.33
2019-03-08T06:03:59.865Z,73.21
2019-03-08T06:05:59.873Z,73.43
2019-03-08T06:07:59.636Z,73.65
2019-03-08T06:09:59.999Z,73.59
2019-03-08T06:12:00.007Z,73.43
2019-03-08T06:14:00.014Z,73.74
2019-03-08T06:15:59.818Z,73.69
2019-03-08T06:17:59.941Z,73.71
2019-03-08T06:19:59.836Z,73.57
2019-03-08T06:21:59.963Z,73.84
2019-03-08T06:23:59.977Z,73.78
2019-03-08T06:25:59.999Z,73.91
2019-03-08T06:27:59.891Z,73.76
2019-03-08T06:29:59.665Z,73.68
2019-03-08T06:31:59.817Z,73.87
2019-03-08T06:33:59.927Z,74.23
2019-03-08T06:35:59.734Z,74.57
2019-03-08T06:37:59.947Z,74.77
2019-03-08T06:39:59.847Z,74.81
2019-03-08T06:41:59.725Z,75.41
2019-03-08T06:43:59.676Z,75.18
2019-03-08T06:45:59.785Z,75.62
2019-03-08T06:47:59.906Z,75.37
2019-03-08T06:49:59.927Z,75.52
2019-03-08T06:52:00.952Z,75.48
2019-03-08T06:53:59.938Z,75.72
2019-03-08T06:55:59.848Z,75.15
2019-03-08T06:57:59.756Z,75.00
2019-03-08T06:59:59.906Z,75.01
2019-03-08T07:01:59.995Z,74.81
2019-03-08T07:03:59.892Z,74.60
2019-03-08T07:06:00.007Z,74.20
2019-03-08T07:07:59.826Z,73.58
2019-03-08T07:10:00.031Z,73.72
2019-03-08T07:11:59.947Z,73.55
2019-03-08T07:13:59.944Z,72.41
2019-03-08T07:15:59.968Z,72.61
2019-03-08T07:17:59.926Z,72.24
2019-03-08T07:20:00.309Z,72.51
2019-03-08T07:22:00.006Z,73.09
2019-03-08T07:24:00.014Z,73.22
2019-03-08T07:25:59.914Z,73.05
2019-03-08T07:28:00.033Z,73.42
2019-03-08T07:29:59.843Z,73.46
2019-03-08T07:31:59.848Z,73.52
2019-03-08T07:34:00.095Z,73.65
2019-03-08T07:36:00.033Z,74.10
2019-03-08T07:37:59.894Z,74.99
2019-03-08T07:40:00.156Z,75.10
2019-03-08T07:41:59.916Z,75.22
2019-03-08T07:44:00.132Z,75.39
2019-03-08T07:46:00.070Z,75.60
2019-03-08T07:48:00.142Z,76.33
2019-03-08T07:50:00.074Z,76.26
2019-03-08T07:51:59.964Z,75.95
2019-03-08T07:53:59.979Z,76.56
2019-03-08T07:56:00.103Z,76.88
2019-03-08T07:58:00.122Z,77.28
2019-03-08T08:00:00.248Z,77.58
2019-03-08T08:02:00.031Z,77.96
2019-03-08T08:03:59.943Z,78.53
2019-03-08T08:06:00.060Z,78.93
2019-03-08T08:08:00.068Z,79.40
2019-03-08T08:10:00.123Z,79.88
2019-03-08T08:11:59.879Z,80.60
2019-03-08T08:14:00.309Z,80.26
2019-03-08T08:15:59.999Z,80.84
2019-03-08T08:18:00.060Z,81.32
2019-03-08T08:20:00.138Z,82.15
2019-03-08T08:21:59.839Z,82.42
2019-03-08T08:23:59.863Z,83.14
2019-03-08T08:26:00.166Z,83.80
2019-03-08T08:28:00.495Z,84.02
2019-03-08T08:30:00.324Z,84.43
2019-03-08T08:32:00.103Z,84.45
2019-03-08T08:34:00.032Z,85.15
2019-03-08T08:36:00.000Z,85.40
2019-03-08T08:38:00.139Z,85.62
2019-03-08T08:40:00.290Z,86.18
2019-03-08T08:42:00.069Z,86.42
2019-03-08T08:43:59.966Z,86.81
2019-03-08T08:46:00.089Z,87.09
2019-03-08T08:47:59.890Z,87.30
2019-03-08T08:50:00.309Z,87.67
2019-03-08T08:51:59.769Z,87.90
2019-03-08T08:54:00.232Z,88.03
2019-03-08T08:56:00.243Z,87.97
2019-03-08T08:58:00.253Z,88.63
2019-03-08T09:00:00.058Z,89.01
2019-03-08T09:02:00.073Z,89.33
2019-03-08T09:04:00.288Z,89.27
2019-03-08T09:05:59.980Z,89.40
2019-03-08T09:08:00.313Z,89.45
2019-03-08T09:10:00.400Z,89.94
2019-03-08T09:12:00.153Z,90.07
2019-03-08T09:13:59.797Z,89.93
2019-03-08T09:15:59.999Z,89.95
2019-03-08T09:18:00.066Z,89.88
2019-03-08T09:20:00.071Z,90.21
2019-03-08T09:22:00.088Z,90.55
2019-03-08T09:24:00.212Z,90.72
2019-03-08T09:26:00.222Z,90.59
2019-03-08T09:28:00.223Z,90.86
2019-03-08T09:30:00.106Z,90.94
2019-03-08T09:32:00.143Z,90.72
2019-03-08T09:34:00.067Z,90.97
2019-03-08T09:36:00.268Z,91.01
2019-03-08T09:37:59.980Z,91.39
2019-03-08T09:40:00.303Z,91.42
2019-03-08T09:42:00.202Z,91.26
2019-03-08T09:43:59.997Z,91.01
2019-03-08T09:46:00.175Z,90.86
2019-03-08T09:48:00.147Z,90.37
2019-03-08T09:50:00.388Z,90.54
2019-03-08T09:52:00.231Z,90.75
2019-03-08T09:54:00.098Z,90.61
2019-03-08T09:56:00.183Z,90.47
2019-03-08T09:58:00.294Z,90.46
2019-03-08T10:00:00.007Z,90.10
2019-03-08T10:02:00.125Z,89.84
2019-03-08T10:04:00.339Z,89.95
2019-03-08T10:06:00.177Z,90.25
2019-03-08T10:08:00.061Z,90.21
2019-03-08T10:09:59.921Z,88.87
2019-03-08T10:12:00.177Z,88.97
2019-03-08T10:14:00.186Z,88.91
2019-03-08T10:16:00.128Z,89.17
2019-03-08T10:18:00.212Z,89.16
2019-03-08T10:20:00.294Z,89.06
2019-03-08T10:22:00.227Z,89.24
2019-03-08T10:24:00.141Z,88.84
2019-03-08T10:26:00.248Z,87.88
2019-03-08T10:28:00.194Z,88.20
2019-03-08T10:30:00.304Z,88.10
2019-03-08T10:32:00.182Z,87.73
2019-03-08T10:34:00.402Z,86.67
2019-03-08T10:36:00.215Z,87.29
2019-03-08T10:38:00.106Z,85.67
2019-03-08T10:40:00.547Z,84.21
2019-03-08T10:42:00.250Z,84.13
2019-03-08T10:44:08.974Z,82.77
2019-03-08T10:46:00.324Z,82.96
2019-03-08T10:48:00.203Z,82.12
2019-03-08T10:50:00.262Z,82.98
2019-03-08T10:52:00.217Z,82.81
2019-03-08T10:54:01.013Z,83.09
2019-03-08T10:56:00.228Z,81.91
2019-03-08T10:58:00.172Z,81.64
2019-03-08T11:00:00.301Z,82.17
2019-03-08T11:02:00.164Z,82.35
2019-03-08T11:04:00.266Z,82.20
2019-03-08T11:06:00.100Z,82.91
2019-03-08T11:08:00.091Z,81.83
2019-03-08T11:10:00.299Z,82.08
2019-03-08T11:12:00.104Z,82.37
2019-03-08T11:14:00.126Z,82.55
2019-03-08T11:16:00.517Z,83.21
2019-03-08T11:18:00.249Z,82.99
2019-03-08T11:20:00.359Z,82.78
2019-03-08T11:22:00.336Z,81.73
2019-03-08T11:24:00.074Z,82.52
2019-03-08T11:26:00.149Z,83.20
2019-03-08T11:28:00.306Z,83.43
2019-03-08T11:30:00.342Z,83.51
2019-03-08T11:32:00.119Z,83.57
2019-03-08T11:34:00.246Z,83.15
2019-03-08T11:36:00.156Z,82.13
2019-03-08T11:38:00.464Z,82.64
2019-03-08T11:39:59.970Z,82.44
2019-03-08T11:42:00.303Z,82.55
2019-03-08T11:44:00.403Z,83.80
2019-03-08T11:46:00.206Z,81.86
2019-03-08T11:48:00.224Z,81.26
2019-03-08T11:50:00.174Z,80.70
2019-03-08T11:52:00.451Z,82.28
2019-03-08T11:54:00.458Z,80.46
2019-03-08T11:56:00.370Z,78.70
2019-03-08T11:58:00.384Z,77.85
2019-03-08T12:00:00.606Z,78.88
2019-03-08T12:02:00.313Z,78.04
2019-03-08T12:04:00.415Z,77.70
2019-03-08T12:06:01.134Z,78.80
2019-03-08T12:08:00.339Z,78.49
2019-03-08T12:10:00.322Z,78.52
2019-03-08T12:12:00.457Z,79.07
2019-03-08T12:14:00.269Z,78.98
2019-03-08T12:16:00.383Z,79.40
2019-03-08T12:18:00.092Z,79.59
2019-03-08T12:20:00.509Z,79.32
2019-03-08T12:22:03.100Z,79.62
2019-03-08T12:24:00.431Z,79.27
2019-03-08T12:26:00.140Z,79.34
2019-03-08T12:28:00.257Z,79.54
2019-03-08T12:30:00.333Z,79.93
2019-03-08T12:32:00.376Z,78.51
2019-03-08T12:34:00.397Z,78.39
2019-03-08T12:36:00.399Z,78.87
2019-03-08T12:38:00.213Z,78.06
2019-03-08T12:40:00.328Z,75.62
2019-03-08T12:41:59.968Z,72.55
2019-03-08T12:44:00.650Z,73.56
2019-03-08T12:46:00.370Z,72.84
2019-03-08T12:48:00.295Z,71.12
2019-03-08T12:50:00.377Z,70.83
2019-03-08T12:52:00.334Z,70.79
2019-03-08T12:54:00.278Z,69.72
2019-03-08T12:56:00.522Z,69.93
2019-03-08T12:58:00.628Z,69.81
2019-03-08T13:00:00.428Z,69.95
2019-03-08T13:02:00.344Z,69.50
2019-03-08T13:04:00.118Z,70.22
2019-03-08T13:06:00.306Z,69.80
2019-03-08T13:08:00.299Z,70.14
2019-03-08T13:10:00.284Z,70.29
2019-03-08T13:12:00.297Z,69.93
2019-03-08T13:14:00.296Z,69.99
2019-03-08T13:16:00.421Z,69.55
2019-03-08T13:18:00.330Z,68.90
2019-03-08T13:20:00.448Z,69.68
2019-03-08T13:22:00.391Z,69.62
2019-03-08T13:24:00.371Z,68.42
2019-03-08T13:26:00.270Z,68.92
2019-03-08T13:28:00.143Z,68.57
2019-03-08T13:30:00.409Z,68.86
2019-03-08T13:32:00.347Z,68.65
2019-03-08T13:34:00.425Z,69.39
2019-03-08T13:36:00.341Z,66.76
2019-03-08T13:38:00.452Z,67.04
2019-03-08T13:40:00.467Z,65.63
2019-03-08T13:42:00.474Z,62.92
2019-03-08T13:44:00.792Z,60.45
2019-03-08T13:46:00.499Z,63.55
2019-03-08T13:48:00.408Z,62.91
2019-03-08T13:50:00.532Z,61.46
2019-03-08T13:52:00.535Z,60.47
2019-03-08T13:54:00.470Z,61.65
2019-03-08T13:56:00.242Z,61.91
2019-03-08T13:58:00.567Z,60.27
2019-03-08T14:00:00.302Z,60.57
2019-03-08T14:02:00.385Z,60.72
2019-03-08T14:04:00.179Z,61.11
2019-03-08T14:06:00.279Z,60.72
2019-03-08T14:08:00.526Z,60.91
2019-03-08T14:10:00.489Z,61.75
2019-03-08T14:12:00.546Z,61.39
2019-03-08T14:14:00.560Z,61.50
2019-03-08T14:16:00.697Z,61.30
2019-03-08T14:18:00.461Z,60.98
2019-03-08T14:20:00.415Z,60.82
2019-03-08T14:22:00.337Z,59.58
2019-03-08T14:24:00.409Z,59.30
2019-03-08T14:26:00.622Z,59.53
2019-03-08T14:28:00.438Z,59.63
2019-03-08T14:30:00.581Z,59.91
2019-03-08T14:32:00.439Z,60.85
2019-03-08T14:34:00.476Z,61.00
2019-03-08T14:36:03.053Z,61.17
2019-03-08T14:38:00.600Z,61.89
2019-03-08T14:40:00.605Z,60.58
2019-03-08T14:42:03.862Z,60.56
2019-03-08T14:44:00.737Z,61.10
2019-03-08T14:46:00.771Z,61.24
2019-03-08T14:48:00.558Z,61.26
2019-03-08T14:50:00.970Z,61.80
2019-03-08T14:52:00.546Z,62.11
2019-03-08T14:54:00.479Z,62.04
2019-03-08T14:56:00.507Z,61.83
2019-03-08T14:58:00.737Z,60.42
2019-03-08T15:00:00.532Z,59.29
2019-03-08T15:02:00.747Z,57.76
2019-03-08T15:04:00.552Z,57.20
2019-03-08T15:06:00.563Z,56.75
2019-03-08T15:08:00.590Z,57.43
2019-03-08T15:10:02.421Z,57.95
2019-03-08T15:12:00.763Z,55.66
2019-03-08T15:14:00.362Z,55.54
2019-03-08T15:16:02.048Z,54.10
2019-03-08T15:18:00.532Z,54.39
2019-03-08T15:20:00.660Z,54.81
2019-03-08T15:22:00.542Z,54.80
2019-03-08T15:24:00.556Z,54.63
2019-03-08T15:26:00.560Z,55.20
2019-03-08T15:28:00.485Z,55.25
2019-03-08T15:30:00.494Z,55.58
2019-03-08T15:32:00.706Z,56.33
2019-03-08T15:34:00.326Z,56.91
2019-03-08T15:36:00.919Z,56.41
2019-03-08T15:38:00.430Z,57.31
2019-03-08T15:40:00.436Z,57.58
2019-03-08T15:42:02.485Z,58.20
2019-03-08T15:44:00.449Z,58.41
2019-03-08T15:46:00.680Z,58.91
2019-03-08T15:48:00.620Z,59.40
2019-03-08T15:50:00.525Z,59.50
2019-03-08T15:52:03.592Z,59.84
2019-03-08T15:54:00.632Z,60.19
2019-03-08T15:56:00.645Z,59.85
2019-03-08T15:58:00.658Z,60.31
2019-03-08T16:00:00.679Z,60.78
2019-03-08T16:02:02.173Z,61.60
2019-03-08T16:04:00.331Z,61.81
2019-03-08T16:06:02.921Z,62.25
2019-03-08T16:08:01.858Z,62.99
2019-03-08T16:10:00.728Z,63.40
2019-03-08T16:12:00.647Z,63.52
2019-03-08T16:14:08.561Z,63.55
2019-03-08T16:16:00.657Z,64.16
2019-03-08T16:18:00.463Z,64.66
2019-03-08T16:20:02.858Z,65.00
2019-03-08T16:22:00.702Z,65.28
2019-03-08T16:24:00.618Z,65.61
2019-03-08T16:26:00.711Z,66.01
2019-03-08T16:28:00.676Z,66.26
2019-03-08T16:30:02.996Z,66.47
2019-03-08T16:32:00.466Z,66.72
2019-03-08T16:34:00.555Z,67.21
2019-03-08T16:36:00.976Z,67.11
2019-03-08T16:38:00.581Z,67.19
2019-03-08T16:40:00.916Z,67.25
2019-03-08T16:42:00.915Z,67.50
2019-03-08T16:44:00.482Z,67.85
2019-03-08T16:46:00.971Z,67.88
2019-03-08T16:48:01.043Z,67.70
2019-03-08T16:50:00.552Z,67.44
2019-03-08T16:52:00.557Z,67.51
2019-03-08T16:54:00.669Z,67.94
2019-03-08T16:56:00.638Z,68.63
2019-03-08T16:58:00.901Z,70.11
2019-03-08T17:00:00.709Z,70.63
2019-03-08T17:02:00.735Z,71.41
2019-03-08T17:04:00.731Z,71.70
2019-03-08T17:06:00.943Z,72.24
2019-03-08T17:08:00.753Z,73.20
2019-03-08T17:10:00.762Z,73.78
2019-03-08T17:12:00.676Z,74.12
2019-03-08T17:14:00.691Z,74.88
2019-03-08T17:16:00.872Z,75.14
2019-03-08T17:18:00.709Z,76.37
2019-03-08T17:20:00.602Z,76.66
2019-03-08T17:22:03.535Z,77.02
2019-03-08T17:24:00.942Z,77.21
2019-03-08T17:26:00.846Z,77.53
2019-03-08T17:28:00.566Z,77.52
2019-03-08T17:30:00.537Z,78.46
2019-03-08T17:32:00.794Z,78.83
2019-03-08T17:34:00.363Z,79.17
2019-03-08T17:36:00.609Z,79.26
2019-03-08T17:38:00.686Z,80.05
2019-03-08T17:40:00.740Z,79.90
2019-03-08T17:42:00.641Z,80.18
2019-03-08T17:44:00.934Z,80.30
2019-03-08T17:46:00.668Z,81.21
2019-03-08T17:48:00.602Z,81.07
2019-03-08T17:50:00.577Z,81.31
2019-03-08T17:52:00.628Z,81.38
2019-03-08T17:54:01.010Z,81.41
2019-03-08T17:56:00.658Z,81.75
2019-03-08T17:58:01.079Z,83.56
2019-03-08T18:00:00.669Z,82.77
2019-03-08T18:02:00.867Z,81.46
2019-03-08T18:04:00.769Z,80.63
2019-03-08T18:06:00.866Z,78.57
2019-03-08T18:08:01.049Z,77.06
2019-03-08T18:10:00.917Z,75.28
2019-03-08T18:12:01.443Z,75.77
2019-03-08T18:14:00.830Z,75.08
2019-03-08T18:16:01.156Z,74.83
2019-03-08T18:18:01.173Z,74.80
2019-03-08T18:20:01.176Z,73.58
2019-03-08T18:22:01.020Z,73.36
2019-03-08T18:24:00.854Z,73.40
2019-03-08T18:26:01.036Z,74.38
2019-03-08T18:28:01.066Z,74.73
2019-03-08T18:30:01.134Z,74.94
2019-03-08T18:32:01.145Z,75.56
2019-03-08T18:34:01.151Z,75.96
2019-03-08T18:36:00.963Z,76.12
2019-03-08T18:38:01.179Z,76.70
2019-03-08T18:40:01.196Z,76.75
2019-03-08T18:42:01.206Z,77.15
2019-03-08T18:44:01.102Z,77.56
2019-03-08T18:46:00.995Z,77.76
2019-03-08T18:48:01.137Z,77.97
2019-03-08T18:50:01.154Z,77.89
2019-03-08T18:52:01.175Z,77.74
2019-03-08T18:54:01.006Z,77.47
2019-03-08T18:56:01.168Z,76.81
2019-03-08T18:58:01.187Z,76.17
2019-03-08T19:00:01.196Z,76.53
2019-03-08T19:02:01.225Z,75.99
2019-03-08T19:04:01.122Z,75.62
2019-03-08T19:06:01.242Z,75.19
2019-03-08T19:08:01.142Z,74.48
2019-03-08T19:10:01.470Z,73.75
2019-03-08T19:12:01.073Z,73.30
2019-03-08T19:14:01.077Z,72.73
2019-03-08T19:16:01.201Z,72.26
2019-03-08T19:18:01.200Z,71.73
2019-03-08T19:20:01.217Z,71.84
2019-03-08T19:22:01.226Z,72.32
2019-03-08T19:24:01.341Z,72.49
2019-03-08T19:26:00.919Z,71.94
2019-03-08T19:28:01.167Z,71.74
2019-03-08T19:30:00.932Z,71.59
2019-03-08T19:32:00.982Z,71.28
2019-03-08T19:34:01.301Z,71.58
2019-03-08T19:36:01.324Z,72.00
2019-03-08T19:38:01.217Z,71.52
2019-03-08T19:40:01.124Z,70.97
2019-03-08T19:42:01.246Z,71.09
2019-03-08T19:44:01.261Z,71.08
2019-03-08T19:46:01.270Z,71.40
2019-03-08T19:48:01.196Z,71.50
2019-03-08T19:50:01.183Z,71.46
2019-03-08T19:52:01.302Z,72.22
2019-03-08T19:54:02.436Z,73.17
2019-03-08T19:56:01.219Z,73.89
2019-03-08T19:58:01.335Z,74.32
2019-03-08T20:00:01.348Z,74.49
2019-03-08T20:02:01.155Z,74.98
2019-03-08T20:04:01.064Z,75.61
2019-03-08T20:06:01.208Z,75.82
2019-03-08T20:08:01.191Z,75.66
2019-03-08T20:10:01.070Z,76.13
2019-03-08T20:12:01.326Z,76.53
2019-03-08T20:14:01.330Z,76.78
2019-03-08T20:16:01.144Z,76.90
2019-03-08T20:18:01.048Z,76.76
2019-03-08T20:20:01.361Z,77.05
2019-03-08T20:22:01.276Z,77.35
2019-03-08T20:24:01.386Z,76.93
2019-03-08T20:26:01.194Z,77.31
2019-03-08T20:28:01.120Z,77.69
2019-03-08T20:30:01.080Z,77.89
2019-03-08T20:32:01.336Z,77.82
2019-03-08T20:34:01.237Z,77.85
2019-03-08T20:36:01.160Z,78.16
2019-03-08T20:38:01.270Z,77.96
2019-03-08T20:40:01.389Z,78.27
2019-03-08T20:42:01.026Z,78.52
2019-03-08T20:44:01.166Z,78.24
2019-03-08T20:46:01.007Z,78.11
2019-03-08T20:48:01.316Z,78.35
2019-03-08T20:50:01.334Z,78.31
2019-03-08T20:52:01.247Z,78.37
2019-03-08T20:54:01.259Z,78.82
2019-03-08T20:56:00.753Z,78.57
2019-03-08T20:58:01.690Z,78.68
2019-03-08T21:00:01.252Z,78.75
2019-03-08T21:02:01.397Z,78.69
2019-03-08T21:04:01.141Z,78.92
2019-03-08T21:06:01.114Z,78.90
2019-03-08T21:08:00.930Z,79.15
2019-03-08T21:10:00.933Z,79.45
2019-03-08T21:12:00.950Z,79.63
2019-03-08T21:14:00.887Z,80.14
2019-03-08T21:16:00.895Z,80.09
2019-03-08T21:18:01.296Z,80.15
2019-03-08T21:20:00.894Z,80.45
2019-03-08T21:22:01.001Z,80.26
2019-03-08T21:24:01.227Z,80.76
2019-03-08T21:26:01.559Z,80.71
2019-03-08T21:28:01.244Z,80.76
2019-03-08T21:30:00.745Z,80.92
2019-03-08T21:32:01.272Z,81.00
2019-03-08T21:34:01.688Z,81.25
2019-03-08T21:36:00.994Z,81.16
2019-03-08T21:38:00.998Z,80.84
2019-03-08T21:40:01.010Z,81.03
2019-03-08T21:42:00.928Z,81.33
2019-03-08T21:44:01.103Z,81.07
2019-03-08T21:46:00.937Z,81.65
2019-03-08T21:48:00.955Z,81.44
2019-03-08T21:50:00.843Z,81.61
2019-03-08T21:52:01.233Z,81.86
2019-03-08T21:54:01.301Z,81.66
2019-03-08T21:56:02.325Z,81.42
2019-03-08T21:58:01.416Z,81.48
2019-03-08T22:00:01.030Z,81.87
2019-03-08T22:02:00.920Z,81.95
2019-03-08T22:04:00.929Z,81.60
2019-03-08T22:06:01.057Z,81.61
2019-03-08T22:08:01.283Z,81.77
2019-03-08T22:10:00.872Z,81.91
2019-03-08T22:12:01.086Z,81.89
2019-03-08T22:14:00.899Z,82.29
2019-03-08T22:16:00.914Z,82.12
2019-03-08T22:18:01.027Z,82.48
2019-03-08T22:20:01.148Z,82.45
2019-03-08T22:22:00.944Z,82.20
2019-03-08T22:24:01.056Z,82.55
2019-03-08T22:26:01.260Z,82.29
2019-03-08T22:28:01.078Z,82.42
2019-03-08T22:30:01.003Z,82.12
2019-03-08T22:32:01.102Z,82.06
2019-03-08T22:34:02.015Z,81.87
2019-03-08T22:36:01.131Z,81.94
2019-03-08T22:38:00.847Z,81.72
2019-03-08T22:40:00.950Z,81.40
2019-03-08T22:42:00.953Z,81.47
2019-03-08T22:44:00.971Z,81.14
2019-03-08T22:46:00.915Z,80.61
2019-03-08T22:48:01.078Z,80.88
2019-03-08T22:50:01.018Z,80.54
2019-03-08T22:52:01.122Z,80.11
2019-03-08T22:54:00.669Z,79.94
2019-03-08T22:56:00.771Z,79.83
2019-03-08T22:58:00.743Z,80.04
2019-03-08T23:00:00.754Z,79.68
2019-03-08T23:02:01.073Z,80.08
2019-03-08T23:04:01.042Z,79.87
2019-03-08T23:06:01.007Z,80.07
2019-03-08T23:08:01.125Z,80.29
2019-03-08T23:10:01.019Z,79.87
2019-03-08T23:12:00.926Z,79.80
2019-03-08T23:14:01.050Z,79.59
2019-03-08T23:16:00.802Z,79.91
2019-03-08T23:18:01.080Z,79.39
2019-03-08T23:20:00.912Z,79.25
2019-03-08T23:22:00.932Z,79.09
2019-03-08T23:24:00.984Z,79.51
2019-03-08T23:26:00.936Z,78.81
2019-03-08T23:28:01.018Z,78.89
2019-03-08T23:30:01.141Z,78.49
2019-03-08T23:32:01.046Z,78.92
2019-03-08T23:34:02.815Z,78.51
2019-03-08T23:36:01.399Z,78.41
2019-03-08T23:38:00.977Z,78.16
2019-03-08T23:40:00.785Z,78.12
2019-03-08T23:42:01.002Z,78.38
2019-03-08T23:44:01.009Z,78.70
2019-03-08T23:46:00.937Z,78.31
2019-03-08T23:48:01.039Z,78.59
2019-03-08T23:50:00.948Z,78.61
2019-03-08T23:52:01.065Z,78.97
2019-03-08T23:54:01.177Z,78.92
2019-03-08T23:56:01.121Z,79.10
2019-03-08T23:58:00.992Z,78.90
